Time;durP1;ratioP1;P1;durP2;ratioP2;P2;SDS_P1;SDS_P2;PMS_P1;PMS_P2;Temp;Humidity;BMP_temperature;BMP_pressure;BME280_temperature;BME280_humidity;BME280_pressure;Samples;Min_cycle;Max_cycle;Signal;HPM_P1;HPM_P2
2021/07/14 00:02:07;;;;;;;9.50;3.80;;;15.10;99.90;;;;;;5071169;28;20411;-60
2021/07/14 00:04:35;;;;;;;10.23;3.83;;;15.10;99.90;;;;;;5071538;28;20884;-61
2021/07/14 00:07:00;;;;;;;14.18;3.75;;;15.10;99.90;;;;;;5070588;28;20387;-60
2021/07/14 00:09:26;;;;;;;22.38;4.55;;;15.20;99.90;;;;;;5071469;28;20408;-61
2021/07/14 00:12:00;;;;;;;8.00;3.55;;;15.30;99.90;;;;;;5071456;28;20391;-61
2021/07/14 00:22:14;;;;;;;9.20;4.10;;;15.40;99.90;;;;;;5070653;28;20468;-62
2021/07/14 00:24:41;;;;;;;8.88;3.50;;;15.40;99.90;;;;;;5070951;28;20380;-62
2021/07/14 00:27:10;;;;;;;9.70;3.65;;;15.30;99.90;;;;;;5070796;28;20813;-59
2021/07/14 00:29:40;;;;;;;11.10;3.80;;;15.20;99.90;;;;;;5071020;28;20383;-61
2021/07/14 00:32:07;;;;;;;15.52;4.30;;;15.20;99.90;;;;;;5069197;28;20448;-60
2021/07/14 00:34:33;;;;;;;12.80;3.90;;;15.20;99.90;;;;;;5071435;28;20399;-60
2021/07/14 00:36:59;;;;;;;11.27;3.60;;;15.10;99.90;;;;;;5070130;28;20426;-60
2021/07/14 00:39:24;;;;;;;9.10;3.80;;;15.10;99.90;;;;;;5071118;28;20407;-61
2021/07/14 00:41:50;;;;;;;10.52;3.75;;;15.10;99.90;;;;;;5071239;28;20417;-60
2021/07/14 00:44:16;;;;;;;12.97;4.10;;;15.20;99.90;;;;;;5070561;28;20384;-60
2021/07/14 00:46:45;;;;;;;9.20;4.10;;;15.20;99.90;;;;;;5071089;28;20413;-61
2021/07/14 00:49:11;;;;;;;12.43;4.50;;;15.20;99.90;;;;;;5070208;28;20391;-60
2021/07/14 00:51:36;;;;;;;9.65;4.53;;;15.20;99.90;;;;;;5070961;28;20762;-60
2021/07/14 00:54:02;;;;;;;11.93;3.97;;;15.10;99.90;;;;;;5069449;28;20403;-60
2021/07/14 00:56:28;;;;;;;8.98;4.20;;;15.00;99.90;;;;;;5070672;28;20379;-60
2021/07/14 00:58:57;;;;;;;14.05;4.93;;;15.00;99.90;;;;;;5070684;28;20402;-59
2021/07/14 01:01:24;;;;;;;11.20;4.30;;;15.00;99.90;;;;;;5070841;28;20376;-60
2021/07/14 01:04:08;;;;;;;11.75;4.63;;;14.90;99.90;;;;;;5071064;28;20383;-60
2021/07/14 01:06:45;;;;;;;10.77;4.47;;;14.90;99.90;;;;;;5070520;28;20399;-61
2021/07/14 01:09:13;;;;;;;12.10;4.50;;;14.90;99.90;;;;;;5069347;28;20458;-60
2021/07/14 01:11:40;;;;;;;11.80;4.95;;;14.90;99.90;;;;;;5069372;28;20765;-61
2021/07/14 01:14:10;;;;;;;10.95;4.53;;;15.00;99.90;;;;;;5069686;28;20901;-60
2021/07/14 01:16:42;;;;;;;7.82;4.18;;;15.10;99.90;;;;;;5070338;28;20437;-60
2021/07/14 01:19:24;;;;;;;12.10;4.80;;;15.10;99.90;;;;;;5068426;28;20453;-60
2021/07/14 01:21:52;;;;;;;12.10;4.70;;;15.10;99.90;;;;;;5070260;28;20456;-60
2021/07/14 01:24:26;;;;;;;8.18;4.10;;;15.00;99.90;;;;;;5069668;28;20410;-60
2021/07/14 01:27:13;;;;;;;12.48;4.13;;;15.00;99.90;;;;;;5070526;28;20387;-61
2021/07/14 01:29:45;;;;;;;8.77;4.10;;;14.90;99.90;;;;;;5070194;28;20380;-60
2021/07/14 01:32:13;;;;;;;12.32;4.40;;;14.90;99.90;;;;;;5069423;28;21244;-61
2021/07/14 01:34:45;;;;;;;10.27;4.10;;;14.80;99.90;;;;;;5069950;28;20384;-60
2021/07/14 01:37:13;;;;;;;10.88;4.28;;;14.80;99.90;;;;;;5069554;28;20410;-61
2021/07/14 01:39:42;;;;;;;9.40;4.30;;;14.90;99.90;;;;;;5069823;28;20388;-60
2021/07/14 01:42:10;;;;;;;16.03;4.63;;;14.90;99.90;;;;;;5067663;28;20380;-60
2021/07/14 01:44:37;;;;;;;12.48;4.32;;;14.80;99.90;;;;;;5070113;28;20380;-61
2021/07/14 01:47:03;;;;;;;14.40;4.47;;;14.90;99.90;;;;;;5069339;28;20471;-60
2021/07/14 01:49:32;;;;;;;7.32;3.78;;;14.90;99.90;;;;;;5069764;28;20426;-61
2021/07/14 01:52:06;;;;;;;13.75;4.10;;;14.90;99.90;;;;;;5068727;28;20402;-59
2021/07/14 01:54:32;;;;;;;10.75;4.65;;;14.90;99.90;;;;;;5068096;28;20406;-60
2021/07/14 01:56:58;;;;;;;15.95;4.72;;;14.90;99.90;;;;;;5068834;28;20380;-59
2021/07/14 01:59:27;;;;;;;15.38;4.97;;;14.80;99.90;;;;;;5069708;28;20378;-61
2021/07/14 02:01:54;;;;;;;13.65;4.70;;;14.80;99.90;;;;;;5069760;28;20478;-61
2021/07/14 02:04:32;;;;;;;14.00;4.32;;;14.80;99.90;;;;;;5068778;28;20472;-60
2021/07/14 02:07:11;;;;;;;16.90;5.10;;;14.80;99.90;;;;;;5069404;28;20427;-59
2021/07/14 02:09:40;;;;;;;14.73;4.20;;;14.80;99.90;;;;;;5067948;28;20464;-63
2021/07/14 02:12:08;;;;;;;13.25;5.53;;;14.80;99.90;;;;;;5068752;28;20884;-60
2021/07/14 02:14:41;;;;;;;22.50;4.88;;;14.80;99.90;;;;;;5069850;28;20387;-60
2021/07/14 02:17:15;;;;;;;14.35;4.80;;;14.80;99.90;;;;;;5068666;28;20379;-60
2021/07/14 02:19:53;;;;;;;15.97;4.90;;;14.90;99.90;;;;;;5069740;28;20466;-60
2021/07/14 02:22:18;;;;;;;12.50;5.25;;;14.80;99.90;;;;;;5069111;28;20435;-60
2021/07/14 02:24:45;;;;;;;14.63;5.10;;;14.80;99.90;;;;;;5069671;28;20773;-61
2021/07/14 02:27:11;;;;;;;14.43;4.80;;;14.90;99.90;;;;;;5068898;28;20921;-62
2021/07/14 02:29:38;;;;;;;13.05;4.72;;;14.90;99.90;;;;;;5069580;28;20438;-60
2021/07/14 02:32:06;;;;;;;11.13;4.30;;;15.50;99.90;;;;;;5068781;28;20391;-60
2021/07/14 02:34:32;;;;;;;10.60;5.10;;;15.00;99.90;;;;;;5069331;28;20390;-60
2021/07/14 02:37:00;;;;;;;11.60;5.20;;;15.10;99.90;;;;;;5068803;28;20442;-59
2021/07/14 02:39:27;;;;;;;9.27;4.70;;;13.80;99.90;;;;;;5069300;28;20383;-61
2021/07/14 02:42:04;;;;;;;9.00;4.30;;;15.30;99.90;;;;;;5068172;28;20391;-60
2021/07/14 02:44:35;;;;;;;11.27;4.80;;;15.30;99.90;;;;;;5069436;28;20406;-60
2021/07/14 02:47:01;;;;;;;12.20;5.50;;;15.10;99.90;;;;;;5068554;28;20759;-59
2021/07/14 02:49:27;;;;;;;11.87;5.20;;;15.10;99.90;;;;;;5069221;28;20399;-61
2021/07/14 02:51:54;;;;;;;10.75;4.78;;;15.00;99.90;;;;;;5070829;28;20379;-61
2021/07/14 02:54:27;;;;;;;10.88;4.88;;;15.00;99.90;;;;;;5072438;28;20404;-61
2021/07/14 02:57:00;;;;;;;11.25;4.60;;;14.90;99.90;;;;;;5072161;28;20799;-60
2021/07/14 02:59:30;;;;;;;9.27;4.72;;;14.90;99.90;;;;;;5073049;28;20481;-60
2021/07/14 03:01:58;;;;;;;15.23;4.72;;;14.90;99.90;;;;;;5073431;28;20442;-60
2021/07/14 03:04:34;;;;;;;19.35;5.75;;;14.90;99.90;;;;;;5071445;28;20403;-61
2021/07/14 03:07:07;;;;;;;8.97;4.20;;;14.90;99.90;;;;;;5071497;28;20783;-59
2021/07/14 03:09:40;;;;;;;9.57;4.80;;;14.80;99.90;;;;;;5071838;28;20456;-61
2021/07/14 03:12:14;;;;;;;13.02;4.55;;;14.80;99.90;;;;;;5070505;28;20473;-60
2021/07/14 03:14:44;;;;;;;12.75;5.10;;;14.90;99.90;;;;;;5072829;28;20489;-60
2021/07/14 03:17:13;;;;;;;9.48;4.90;;;14.80;99.90;;;;;;5071338;28;20495;-62
2021/07/14 03:19:40;;;;;;;10.73;5.22;;;14.80;99.90;;;;;;5071124;28;20391;-61
2021/07/14 03:22:07;;;;;;;10.07;4.20;;;14.60;99.90;;;;;;5071561;28;20384;-61
2021/07/14 03:24:34;;;;;;;14.75;4.90;;;14.70;99.90;;;;;;5072462;28;20382;-61
2021/07/14 03:27:02;;;;;;;9.07;4.00;;;14.70;99.90;;;;;;5071898;28;20391;-59
2021/07/14 03:29:31;;;;;;;11.02;4.70;;;14.70;99.90;;;;;;5072559;28;20400;-61
2021/07/14 03:31:57;;;;;;;10.80;4.90;;;14.80;99.90;;;;;;5088280;28;20381;-61
2021/07/14 03:34:23;;;;;;;13.20;4.70;;;14.90;99.90;;;;;;5091513;28;20405;-60
2021/07/14 03:36:50;;;;;;;12.02;5.18;;;14.90;99.90;;;;;;5093061;28;20798;-62
2021/07/14 03:39:16;;;;;;;8.77;4.80;;;14.90;99.90;;;;;;5091794;28;20428;-61
2021/07/14 03:41:43;;;;;;;11.05;4.80;;;14.80;99.90;;;;;;5090952;28;20499;-59
2021/07/14 03:44:11;;;;;;;13.02;4.78;;;14.70;99.90;;;;;;5091770;28;20386;-60
2021/07/14 03:46:39;;;;;;;10.60;4.95;;;14.70;99.90;;;;;;5092426;28;20401;-60
2021/07/14 03:49:05;;;;;;;10.30;4.60;;;14.80;99.90;;;;;;5091606;28;20395;-60
2021/07/14 03:51:31;;;;;;;7.95;4.50;;;14.80;99.90;;;;;;5092496;28;20375;-60
2021/07/14 03:53:58;;;;;;;12.52;5.22;;;14.90;99.90;;;;;;5092232;28;20413;-60
2021/07/14 03:56:24;;;;;;;9.82;5.53;;;14.90;99.90;;;;;;5091640;28;20378;-60
2021/07/14 03:58:52;;;;;;;10.80;4.95;;;15.00;99.90;;;;;;5091200;28;20485;-60
2021/07/14 04:01:18;;;;;;;10.07;5.10;;;14.90;99.90;;;;;;5091585;28;20386;-61
2021/07/14 04:03:45;;;;;;;10.55;4.70;;;14.90;99.90;;;;;;5090220;28;20880;-60
2021/07/14 04:06:14;;;;;;;8.75;4.97;;;15.00;99.90;;;;;;5091511;28;20382;-61
2021/07/14 04:09:09;;;;;;;9.52;4.47;;;15.00;99.90;;;;;;5091554;28;20409;-61
2021/07/14 04:11:35;;;;;;;12.38;4.70;;;15.10;99.90;;;;;;5091493;28;20979;-61
2021/07/14 04:14:00;;;;;;;12.75;4.85;;;15.10;99.90;;;;;;5089996;28;20539;-59
2021/07/14 04:16:27;;;;;;;8.87;4.43;;;15.10;99.90;;;;;;5084691;28;20390;-60
2021/07/14 04:18:53;;;;;;;16.93;4.40;;;15.10;99.90;;;;;;5079308;28;20391;-61
2021/07/14 04:21:18;;;;;;;9.55;4.28;;;15.10;99.90;;;;;;5090702;28;20382;-60
2021/07/14 04:23:44;;;;;;;11.70;5.00;;;15.00;99.90;;;;;;5091735;28;20401;-60
2021/07/14 04:26:09;;;;;;;11.95;4.93;;;15.00;99.90;;;;;;5091550;28;20457;-60
2021/07/14 04:28:35;;;;;;;12.75;4.85;;;15.10;99.90;;;;;;5091859;28;20375;-60
2021/07/14 04:31:01;;;;;;;12.93;5.73;;;15.10;99.90;;;;;;5091302;28;20382;-59
2021/07/14 04:33:26;;;;;;;10.35;4.95;;;15.20;99.90;;;;;;5090673;28;20406;-61
2021/07/14 04:35:52;;;;;;;12.55;4.70;;;15.10;99.90;;;;;;5081033;28;20406;-60
2021/07/14 04:38:18;;;;;;;10.20;4.80;;;15.10;99.90;;;;;;5080714;28;20389;-60
2021/07/14 04:40:44;;;;;;;14.07;4.88;;;15.10;99.90;;;;;;5086369;28;20852;-61
2021/07/14 04:43:10;;;;;;;11.23;4.88;;;15.20;99.90;;;;;;5090730;28;20386;-61
2021/07/14 04:45:37;;;;;;;17.23;5.50;;;15.40;99.90;;;;;;5090227;28;20382;-61
2021/07/14 04:48:03;;;;;;;13.65;5.20;;;15.40;99.90;;;;;;5090854;28;20378;-59
2021/07/14 04:50:30;;;;;;;12.30;5.40;;;15.30;99.90;;;;;;5091431;28;20378;-60
2021/07/14 04:52:56;;;;;;;11.02;4.95;;;15.60;99.90;;;;;;5091123;28;20413;-60
2021/07/14 04:55:21;;;;;;;14.88;4.50;;;15.70;99.90;;;;;;5089274;28;20562;-61
2021/07/14 04:57:47;;;;;;;17.47;4.70;;;15.60;99.90;;;;;;5090957;28;20435;-61
2021/07/14 05:00:16;;;;;;;10.33;4.80;;;15.80;99.90;;;;;;5090239;28;20867;-61
2021/07/14 05:02:43;;;;;;;11.90;5.73;;;15.80;99.90;;;;;;5091060;28;20483;-61
2021/07/14 05:05:09;;;;;;;10.50;5.05;;;15.80;99.90;;;;;;5090000;28;20848;-61
2021/07/14 05:07:35;;;;;;;10.52;5.30;;;15.80;99.90;;;;;;5089043;28;20385;-62
2021/07/14 05:10:00;;;;;;;11.33;5.70;;;15.90;99.90;;;;;;5088899;28;20787;-59
2021/07/14 05:12:26;;;;;;;11.07;5.00;;;14.50;99.90;;;;;;5072792;28;20873;-61
2021/07/14 05:14:52;;;;;;;7.78;4.95;;;15.90;99.90;;;;;;5088764;28;20826;-61
2021/07/14 05:17:18;;;;;;;10.50;4.90;;;15.90;99.90;;;;;;5089745;28;20416;-61
2021/07/14 05:19:43;;;;;;;12.30;4.72;;;16.00;99.90;;;;;;5076828;28;20402;-61
2021/07/14 05:22:10;;;;;;;9.23;5.37;;;16.10;99.90;;;;;;5078488;28;20861;-61
2021/07/14 05:24:36;;;;;;;9.73;5.00;;;16.20;99.90;;;;;;5086632;28;20383;-61
2021/07/14 05:27:01;;;;;;;10.20;5.13;;;16.40;99.90;;;;;;5082284;28;20385;-59
2021/07/14 05:29:27;;;;;;;10.43;4.83;;;16.40;99.90;;;;;;5092037;28;20382;-61
2021/07/14 05:31:53;;;;;;;12.32;4.80;;;16.40;99.90;;;;;;5077944;28;20394;-60
2021/07/14 05:34:18;;;;;;;9.50;5.05;;;16.40;99.90;;;;;;5075781;28;20418;-60
2021/07/14 05:36:44;;;;;;;10.97;4.80;;;16.30;99.90;;;;;;5081163;28;20464;-61
2021/07/14 05:39:10;;;;;;;9.70;4.80;;;16.20;99.90;;;;;;5089138;28;20478;-61
2021/07/14 05:41:36;;;;;;;10.63;4.68;;;16.20;99.90;;;;;;5090566;28;20828;-60
2021/07/14 05:44:02;;;;;;;10.52;4.90;;;16.20;99.90;;;;;;5085318;28;20400;-59
2021/07/14 05:46:28;;;;;;;12.88;6.43;;;16.30;99.90;;;;;;5072375;28;20390;-60
2021/07/14 05:49:00;;;;;;;8.75;4.50;;;16.40;99.90;;;;;;5090271;28;20727;-60
2021/07/14 05:51:25;;;;;;;9.13;4.50;;;16.40;99.90;;;;;;5078921;28;20405;-60
2021/07/14 05:53:51;;;;;;;10.50;4.90;;;16.40;99.90;;;;;;5089922;28;20749;-61
2021/07/14 05:56:17;;;;;;;11.03;4.93;;;16.40;99.90;;;;;;5088949;28;20394;-60
2021/07/14 05:58:42;;;;;;;9.90;4.95;;;16.50;99.90;;;;;;5089748;28;20423;-61
2021/07/14 06:01:09;;;;;;;8.93;4.70;;;16.70;99.90;;;;;;5088358;28;20508;-60
2021/07/14 06:03:35;;;;;;;9.18;5.03;;;16.80;99.90;;;;;;5089827;28;20378;-60
2021/07/14 06:06:00;;;;;;;10.07;4.97;;;16.80;99.90;;;;;;5089518;28;20874;-60
2021/07/14 06:08:26;;;;;;;8.67;4.73;;;16.90;99.90;;;;;;5088621;28;20940;-61
2021/07/14 06:10:52;;;;;;;9.75;5.10;;;16.90;99.90;;;;;;5089521;28;20704;-60
2021/07/14 06:13:18;;;;;;;9.98;4.90;;;16.80;99.90;;;;;;5088780;28;20895;-60
2021/07/14 06:15:44;;;;;;;8.57;4.80;;;16.60;99.90;;;;;;5080306;28;20434;-61
2021/07/14 06:18:10;;;;;;;8.30;5.03;;;16.50;99.90;;;;;;5080506;28;20386;-60
2021/07/14 06:20:36;;;;;;;9.77;5.22;;;16.40;99.90;;;;;;5069427;28;20391;-61
2021/07/14 06:23:02;;;;;;;11.57;4.68;;;16.40;99.90;;;;;;5069300;28;20384;-60
2021/07/14 06:25:29;;;;;;;9.23;4.72;;;16.40;99.90;;;;;;5074200;28;20386;-60
2021/07/14 06:27:57;;;;;;;8.18;4.63;;;16.50;99.90;;;;;;5087842;28;20374;-60
2021/07/14 06:30:25;;;;;;;7.53;4.60;;;16.50;99.90;;;;;;5088647;28;20454;-61
2021/07/14 06:32:53;;;;;;;9.40;5.10;;;16.50;99.90;;;;;;5088867;28;20807;-60
2021/07/14 06:35:21;;;;;;;12.02;5.20;;;16.70;99.90;;;;;;5089070;28;20398;-60
2021/07/14 06:37:49;;;;;;;9.20;5.15;;;16.80;99.90;;;;;;5088800;28;20435;-60
2021/07/14 06:40:16;;;;;;;8.67;4.73;;;16.80;99.90;;;;;;5088629;28;20508;-60
2021/07/14 06:42:41;;;;;;;8.90;5.22;;;16.70;99.90;;;;;;5089154;28;20451;-60
2021/07/14 06:45:09;;;;;;;9.87;5.60;;;16.50;99.90;;;;;;5088215;28;20867;-59
2021/07/14 06:47:36;;;;;;;11.82;4.68;;;16.50;99.90;;;;;;5087670;28;20553;-60
2021/07/14 06:50:04;;;;;;;8.60;5.00;;;16.50;99.90;;;;;;5089120;28;20389;-60
2021/07/14 06:52:30;;;;;;;8.73;5.30;;;16.60;99.90;;;;;;5088104;28;20435;-61
2021/07/14 06:54:55;;;;;;;7.57;4.32;;;16.70;99.90;;;;;;5089300;28;20844;-60
2021/07/14 06:57:21;;;;;;;10.57;4.90;;;16.70;99.90;;;;;;5087924;28;20374;-60
2021/07/14 06:59:46;;;;;;;8.98;4.78;;;16.70;99.90;;;;;;5083644;28;21023;-60
2021/07/14 07:02:12;;;;;;;8.80;4.60;;;16.70;99.90;;;;;;5079118;28;20370;-60
2021/07/14 07:04:38;;;;;;;8.00;4.60;;;16.80;99.90;;;;;;5089265;28;20382;-61
2021/07/14 07:07:04;;;;;;;7.40;4.70;;;17.00;99.90;;;;;;5088937;28;20386;-59
2021/07/14 07:09:29;;;;;;;8.10;4.85;;;17.00;99.90;;;;;;5088492;28;20409;-60
2021/07/14 07:11:55;;;;;;;11.70;4.97;;;17.00;99.90;;;;;;5088926;28;20374;-60
2021/07/14 07:14:21;;;;;;;10.00;5.20;;;17.20;99.90;;;;;;5086861;28;20409;-58
2021/07/14 07:16:46;;;;;;;11.47;4.50;;;17.30;99.90;;;;;;5088731;28;20425;-58
2021/07/14 07:19:12;;;;;;;9.00;4.47;;;17.30;99.90;;;;;;5088243;28;20482;-58
2021/07/14 07:21:37;;;;;;;10.10;4.60;;;17.30;99.90;;;;;;5085339;28;20490;-58
2021/07/14 07:24:04;;;;;;;9.35;4.57;;;17.30;99.90;;;;;;5073634;28;20507;-57
2021/07/14 07:26:29;;;;;;;10.40;4.80;;;17.50;99.90;;;;;;5088970;28;20427;-58
2021/07/14 07:29:00;;;;;;;9.73;4.80;;;17.60;99.90;;;;;;5074313;28;20456;-58
2021/07/14 07:31:26;;;;;;;8.10;4.88;;;17.50;99.90;;;;;;5067719;28;20374;-58
2021/07/14 07:33:51;;;;;;;9.55;4.90;;;17.40;99.90;;;;;;5068400;28;20407;-58
2021/07/14 07:36:18;;;;;;;9.60;5.20;;;17.40;99.90;;;;;;5077188;28;20440;-59
2021/07/14 07:38:43;;;;;;;7.70;4.80;;;17.50;99.90;;;;;;5070911;28;20811;-58
2021/07/14 07:41:11;;;;;;;10.70;4.63;;;17.60;99.90;;;;;;5071232;28;20371;-58
2021/07/14 07:43:37;;;;;;;6.82;4.40;;;17.70;99.90;;;;;;5071960;28;20387;-59
2021/07/14 07:46:03;;;;;;;7.40;4.50;;;17.80;99.90;;;;;;5071856;28;20391;-58
2021/07/14 07:48:29;;;;;;;9.95;4.82;;;17.80;99.90;;;;;;5071634;28;20396;-58
2021/07/14 07:50:55;;;;;;;11.27;4.82;;;17.80;99.90;;;;;;5071692;28;20380;-58
2021/07/14 07:53:22;;;;;;;10.37;4.73;;;17.80;99.90;;;;;;5070906;28;20426;-58
2021/07/14 07:55:49;;;;;;;10.40;4.97;;;17.90;99.90;;;;;;5072045;28;20470;-58
2021/07/14 07:58:15;;;;;;;9.07;5.03;;;17.80;99.90;;;;;;5071076;28;20400;-58
2021/07/14 08:00:41;;;;;;;9.80;4.75;;;17.70;99.90;;;;;;5086551;28;20433;-58
2021/07/14 08:03:07;;;;;;;10.70;4.95;;;17.80;99.90;;;;;;5091556;28;20382;-56
2021/07/14 08:05:33;;;;;;;7.60;4.80;;;17.80;99.90;;;;;;5091963;28;20397;-58
2021/07/14 08:07:59;;;;;;;10.07;4.80;;;17.80;99.90;;;;;;5091492;28;20724;-59
2021/07/14 08:10:25;;;;;;;8.03;4.60;;;17.90;99.90;;;;;;5090996;28;20690;-58
2021/07/14 08:12:51;;;;;;;9.23;4.70;;;18.00;99.90;;;;;;5091290;28;20409;-58
2021/07/14 08:15:17;;;;;;;8.45;4.97;;;18.10;99.90;;;;;;5090705;28;20410;-58
2021/07/14 08:17:43;;;;;;;11.27;5.65;;;18.10;99.90;;;;;;5091763;28;20526;-58
2021/07/14 08:20:10;;;;;;;10.00;5.10;;;18.00;99.90;;;;;;5090896;28;20401;-57
2021/07/14 08:22:37;;;;;;;8.25;5.60;;;18.00;99.90;;;;;;5091357;28;20848;-58
2021/07/14 08:25:05;;;;;;;9.30;5.35;;;18.00;99.90;;;;;;5091363;28;20374;-58
2021/07/14 08:27:31;;;;;;;9.23;5.20;;;17.90;99.90;;;;;;5090615;28;20384;-58
2021/07/14 08:29:59;;;;;;;11.07;6.38;;;17.90;99.90;;;;;;5091598;28;20416;-58
2021/07/14 08:32:28;;;;;;;13.40;6.70;;;17.80;99.90;;;;;;5090392;28;20444;-58
2021/07/14 08:34:55;;;;;;;11.10;6.82;;;17.70;99.90;;;;;;5091408;28;20381;-58
2021/07/14 08:37:22;;;;;;;10.85;6.78;;;17.70;99.90;;;;;;5090488;28;20429;-60
2021/07/14 08:39:51;;;;;;;9.93;5.80;;;17.70;99.90;;;;;;5090959;28;20374;-57
2021/07/14 08:42:20;;;;;;;8.98;5.90;;;17.80;99.90;;;;;;5090609;28;20378;-58
2021/07/14 08:44:46;;;;;;;10.25;6.60;;;17.80;99.90;;;;;;5090693;28;20748;-58
2021/07/14 08:47:13;;;;;;;12.38;6.65;;;17.80;99.90;;;;;;5090091;28;20430;-58
2021/07/14 08:49:41;;;;;;;10.60;6.50;;;17.90;99.90;;;;;;5089444;28;20393;-58
2021/07/14 08:52:08;;;;;;;12.38;7.28;;;17.70;99.90;;;;;;5090588;28;20421;-57
2021/07/14 08:54:37;;;;;;;13.18;6.50;;;17.80;99.90;;;;;;5084676;28;20415;-57
2021/07/14 08:57:03;;;;;;;9.10;5.70;;;17.90;99.90;;;;;;5077935;28;20392;-58
2021/07/14 08:59:29;;;;;;;9.18;6.47;;;17.90;99.90;;;;;;5076512;28;20390;-58
2021/07/14 09:01:55;;;;;;;12.38;6.40;;;17.70;99.90;;;;;;5076766;28;20398;-57
2021/07/14 09:04:20;;;;;;;12.15;6.30;;;17.70;99.90;;;;;;5084711;28;20446;-58
2021/07/14 09:06:46;;;;;;;9.07;5.30;;;17.70;99.90;;;;;;5079997;28;20841;-58
2021/07/14 09:09:11;;;;;;;10.30;5.73;;;17.80;99.90;;;;;;5068990;28;20406;-57
2021/07/14 09:11:50;;;;;;;10.13;5.90;;;17.70;99.90;;;;;;5069972;28;20387;-58
2021/07/14 09:14:33;;;;;;;11.88;6.10;;;17.80;99.90;;;;;;5068924;28;20811;-58
2021/07/14 09:17:17;;;;;;;10.10;5.50;;;18.00;99.90;;;;;;5068646;28;20388;-58
2021/07/14 09:19:43;;;;;;;9.57;5.40;;;18.30;99.90;;;;;;5069632;28;20411;-58
2021/07/14 09:22:22;;;;;;;7.33;5.00;;;18.50;99.90;;;;;;5069417;28;20929;-58
2021/07/14 09:24:48;;;;;;;11.27;5.10;;;18.50;99.90;;;;;;5069991;28;20384;-58
2021/07/14 09:27:27;;;;;;;9.13;5.10;;;18.50;99.90;;;;;;5069132;28;20387;-58
2021/07/14 09:30:06;;;;;;;7.88;4.95;;;18.70;99.90;;;;;;5069977;28;20854;-58
2021/07/14 09:32:48;;;;;;;9.38;4.50;;;18.90;99.90;;;;;;5069275;28;20391;-58
2021/07/14 09:35:37;;;;;;;9.68;4.70;;;19.10;99.90;;;;;;5068997;28;20437;-58
2021/07/14 09:38:15;;;;;;;8.70;4.43;;;19.10;99.90;;;;;;5068492;28;20450;-58
2021/07/14 09:40:43;;;;;;;8.82;4.30;;;19.30;99.90;;;;;;5069742;28;20422;-58
2021/07/14 09:43:11;;;;;;;10.20;4.60;;;19.30;99.90;;;;;;5068952;28;20479;-57
2021/07/14 09:45:48;;;;;;;9.23;4.50;;;19.30;99.90;;;;;;5069912;28;20398;-58
2021/07/14 09:48:36;;;;;;;8.30;4.30;;;19.30;99.90;;;;;;5068971;28;20380;-58
2021/07/14 09:51:10;;;;;;;7.05;4.50;;;19.50;99.90;;;;;;5069437;28;20407;-58
2021/07/14 09:53:42;;;;;;;6.82;4.20;;;19.30;99.90;;;;;;5069487;28;20408;-58
2021/07/14 09:56:17;;;;;;;8.38;4.63;;;19.30;99.90;;;;;;5069008;28;20513;-57
2021/07/14 09:58:44;;;;;;;8.13;5.10;;;19.30;99.90;;;;;;5069113;28;20412;-58
2021/07/14 10:01:15;;;;;;;8.18;4.68;;;19.00;99.90;;;;;;5087173;28;20458;-57
2021/07/14 10:03:51;;;;;;;10.43;4.70;;;19.30;99.90;;;;;;5076196;28;20400;-58
2021/07/14 10:06:18;;;;;;;11.43;4.75;;;19.70;99.90;;;;;;5068334;28;20536;-58
2021/07/14 10:08:46;;;;;;;7.30;4.43;;;19.60;99.90;;;;;;5074493;28;20408;-58
2021/07/14 10:11:13;;;;;;;8.20;4.57;;;19.80;99.90;;;;;;5084079;28;20382;-57
2021/07/14 10:13:49;;;;;;;9.55;4.75;;;20.20;99.90;;;;;;5073697;28;20404;-58
2021/07/14 10:16:18;;;;;;;9.65;4.90;;;20.40;99.90;;;;;;5071171;28;20403;-60
2021/07/14 10:18:54;;;;;;;9.30;4.00;;;20.50;99.90;;;;;;5069407;28;20371;-60
2021/07/14 10:21:21;;;;;;;8.27;4.70;;;20.30;99.90;;;;;;5071162;28;20396;-60
2021/07/14 10:23:48;;;;;;;7.35;4.15;;;20.50;99.90;;;;;;5086829;28;20394;-58
2021/07/14 10:26:14;;;;;;;10.63;4.32;;;20.60;99.90;;;;;;5080634;28;20464;-60
2021/07/14 10:28:44;;;;;;;8.00;4.20;;;20.90;99.90;;;;;;5087940;28;20396;-60
2021/07/14 10:31:10;;;;;;;8.60;4.53;;;21.10;99.90;;;;;;5085684;28;20431;-59
2021/07/14 10:33:38;;;;;;;8.90;4.10;;;21.30;99.90;;;;;;5088036;28;20410;-60
2021/07/14 10:36:06;;;;;;;6.45;3.85;;;21.50;99.90;;;;;;5087980;28;20459;-62
2021/07/14 10:38:33;;;;;;;6.88;3.90;;;21.90;99.90;;;;;;5087409;28;20382;-60
2021/07/14 10:40:59;;;;;;;9.18;4.18;;;22.00;99.90;;;;;;5089115;28;20378;-60
2021/07/14 10:43:27;;;;;;;6.83;3.60;;;22.20;99.90;;;;;;5087710;28;20904;-60
2021/07/14 10:45:53;;;;;;;6.93;3.65;;;22.40;99.90;;;;;;5089157;28;20849;-60
2021/07/14 10:48:22;;;;;;;10.60;4.30;;;22.30;99.90;;;;;;5088901;28;20445;-60
2021/07/14 10:50:49;;;;;;;8.40;4.00;;;22.30;99.90;;;;;;5089108;28;20448;-60
2021/07/14 10:53:17;;;;;;;10.35;3.80;;;22.30;99.90;;;;;;5088513;28;20884;-60
2021/07/14 10:55:47;;;;;;;6.70;3.30;;;22.20;99.90;;;;;;5089216;28;20378;-60
2021/07/14 10:58:17;;;;;;;7.47;3.50;;;22.10;99.90;;;;;;5089760;28;20405;-60
2021/07/14 11:00:45;;;;;;;6.82;3.30;;;22.60;99.90;;;;;;5089060;28;20442;-60
2021/07/14 11:03:44;;;;;;;8.20;3.70;;;23.20;99.90;;;;;;5088546;28;20899;-59
2021/07/14 11:06:13;;;;;;;7.07;3.40;;;23.00;99.90;;;;;;5088682;28;20453;-59
2021/07/14 11:08:38;;;;;;;6.32;3.58;;;23.10;99.90;;;;;;5088714;28;20382;-60
2021/07/14 11:11:04;;;;;;;6.10;3.00;;;23.40;99.90;;;;;;5088563;28;20390;-60
2021/07/14 11:13:32;;;;;;;6.28;3.30;;;23.60;99.90;;;;;;5088094;28;20679;-60
2021/07/14 11:16:19;;;;;;;5.47;2.78;;;23.30;99.90;;;;;;5091188;28;20390;-60
2021/07/14 11:18:45;;;;;;;5.40;2.90;;;23.20;99.90;;;;;;5092796;28;20910;-61
2021/07/14 11:21:42;;;;;;;9.27;3.37;;;23.40;99.90;;;;;;5101673;28;20497;-59
2021/07/14 11:24:08;;;;;;;6.15;2.70;;;23.30;99.90;;;;;;5100684;28;20387;-60
2021/07/14 11:26:34;;;;;;;7.45;2.53;;;23.30;99.90;;;;;;5112667;28;20380;-60
2021/07/14 11:29:14;;;;;;;5.45;2.42;;;23.30;99.90;;;;;;5112756;28;20365;-60
2021/07/14 11:31:42;;;;;;;6.20;2.45;;;23.70;99.90;;;;;;5111285;28;20473;-60
2021/07/14 11:34:27;;;;;;;6.35;2.50;;;23.60;99.90;;;;;;5090700;28;20398;-60
2021/07/14 11:36:53;;;;;;;6.60;2.60;;;23.70;99.90;;;;;;5091316;28;20467;-60
2021/07/14 11:39:29;;;;;;;7.93;2.40;;;24.10;99.90;;;;;;5088870;28;20935;-58
2021/07/14 11:42:19;;;;;;;4.90;2.10;;;24.20;99.90;;;;;;5088119;28;20471;-60
2021/07/14 11:44:54;;;;;;;4.90;2.05;;;23.90;99.90;;;;;;5083867;28;20388;-61
2021/07/14 11:47:36;;;;;;;7.63;2.50;;;24.00;99.90;;;;;;5101982;28;20433;-60
2021/07/14 11:50:04;;;;;;;5.85;2.47;;;23.90;99.90;;;;;;5097417;28;20479;-60
2021/07/14 11:52:47;;;;;;;8.57;2.50;;;24.20;99.90;;;;;;5092556;28;20395;-58
2021/07/14 11:55:24;;;;;;;4.80;2.25;;;24.50;99.90;;;;;;5091305;28;20373;-57
2021/07/14 11:57:54;;;;;;;6.50;2.20;;;24.50;99.90;;;;;;5098808;28;20404;-58
2021/07/14 12:00:33;;;;;;;5.13;2.20;;;24.20;99.90;;;;;;5095947;28;20462;-58
2021/07/14 12:03:00;;;;;;;4.95;2.05;;;24.20;99.90;;;;;;5105545;28;20393;-58
2021/07/14 12:05:33;;;;;;;4.65;1.80;;;24.00;99.90;;;;;;5092637;28;20420;-60
2021/07/14 12:08:13;;;;;;;4.80;2.00;;;23.90;99.90;;;;;;5087407;28;20409;-59
2021/07/14 12:10:40;;;;;;;5.00;1.90;;;24.00;99.90;;;;;;5107591;28;20396;-59
2021/07/14 12:13:06;;;;;;;5.30;1.77;;;23.80;99.90;;;;;;5095749;28;20431;-59
2021/07/14 12:15:34;;;;;;;4.32;1.45;;;23.40;99.90;;;;;;5103156;28;20370;-59
2021/07/14 12:18:07;;;;;;;4.35;1.75;;;23.20;99.90;;;;;;5103000;28;20380;-59
2021/07/14 12:20:33;;;;;;;5.85;1.88;;;23.40;99.90;;;;;;5094702;28;21004;-59
2021/07/14 12:22:59;;;;;;;4.77;2.10;;;23.60;99.90;;;;;;5108370;28;20435;-59
2021/07/14 12:25:24;;;;;;;4.50;1.73;;;24.10;99.90;;;;;;5087313;28;20457;-59
2021/07/14 12:28:04;;;;;;;4.67;1.90;;;24.10;99.90;;;;;;5078784;28;20431;-60
2021/07/14 12:30:33;;;;;;;5.60;1.70;;;23.90;99.90;;;;;;5070365;28;20384;-59
2021/07/14 12:32:59;;;;;;;4.20;1.65;;;22.90;99.90;;;;;;5078663;28;20402;-60
2021/07/14 12:35:27;;;;;;;5.33;1.90;;;22.90;99.90;;;;;;5092299;28;21076;-59
2021/07/14 12:37:55;;;;;;;7.00;1.90;;;23.10;99.90;;;;;;5090501;28;20413;-60
2021/07/14 12:40:29;;;;;;;4.63;1.80;;;23.30;99.90;;;;;;5101762;28;20738;-59
2021/07/14 12:43:01;;;;;;;5.70;2.70;;;23.10;99.90;;;;;;5080129;28;20746;-61
2021/07/14 12:45:36;;;;;;;5.60;2.80;;;23.00;99.90;;;;;;5089685;28;20449;-60
2021/07/14 12:48:06;;;;;;;4.90;2.00;;;23.50;99.90;;;;;;5094443;28;20388;-62
2021/07/14 12:50:33;;;;;;;5.13;1.70;;;24.00;99.90;;;;;;5095019;28;20417;-62
2021/07/14 12:53:00;;;;;;;5.10;2.20;;;24.10;99.90;;;;;;5094792;28;20409;-62
2021/07/14 12:55:27;;;;;;;6.00;2.20;;;24.20;99.90;;;;;;5093759;28;20379;-63
2021/07/14 12:58:01;;;;;;;8.20;2.30;;;24.10;99.90;;;;;;5094367;28;20386;-62
2021/07/14 13:00:28;;;;;;;5.50;2.80;;;23.90;99.90;;;;;;5091347;28;20398;-65